createdAt,value
2019-04-20T00:00:55.079Z,52.97
2019-04-20T00:03:26.018Z,53.27
2019-04-20T00:05:51.409Z,53.01
2019-04-20T00:08:23.146Z,53.13
2019-04-20T00:10:52.989Z,53.01
2019-04-20T00:13:24.060Z,52.96
2019-04-20T00:15:44.994Z,52.90
2019-04-20T00:18:13.460Z,53.25
2019-04-20T00:20:51.400Z,53.27
2019-04-20T00:23:47.735Z,53.18
2019-04-20T00:26:56.268Z,53.17
2019-04-20T00:29:11.239Z,53.13
2019-04-20T00:31:39.317Z,53.06
2019-04-20T00:34:02.372Z,52.84
2019-04-20T00:36:20.163Z,53.06
2019-04-20T00:38:53.042Z,53.31
2019-04-20T00:41:18.582Z,53.46
2019-04-20T00:43:45.500Z,53.77
2019-04-20T00:46:22.147Z,53.72
2019-04-20T00:48:51.905Z,53.66
2019-04-20T00:51:31.612Z,53.54
2019-04-20T00:53:43.177Z,53.85
2019-04-20T00:56:07.535Z,54.05
2019-04-20T00:58:50.803Z,54.38
2019-04-20T01:01:20.623Z,54.43
2019-04-20T01:03:47.293Z,54.58
2019-04-20T01:06:36.850Z,54.66
2019-04-20T01:09:01.326Z,54.45
2019-04-20T01:11:33.968Z,54.28
2019-04-20T01:14:03.891Z,54.33
2019-04-20T01:16:35.354Z,54.68
2019-04-20T01:18:53.639Z,54.70
2019-04-20T01:21:24.811Z,55.37
2019-04-20T01:23:53.296Z,55.35
2019-04-20T01:26:19.676Z,55.51
2019-04-20T01:28:58.592Z,55.92
2019-04-20T01:31:25.389Z,55.71
2019-04-20T01:33:56.585Z,55.83
2019-04-20T01:36:33.421Z,55.89
2019-04-20T01:38:55.430Z,55.94
2019-04-20T01:41:09.603Z,55.94
2019-04-20T01:43:37.452Z,56.10
2019-04-20T01:46:11.327Z,56.03
2019-04-20T01:48:36.619Z,56.94
2019-04-20T01:51:07.329Z,56.51
2019-04-20T01:53:56.789Z,56.56
2019-04-20T01:56:17.172Z,56.75
2019-04-20T01:59:12.554Z,57.06
2019-04-20T02:01:39.640Z,56.98
2019-04-20T02:04:23.773Z,57.12
2019-04-20T02:06:48.843Z,57.13
2019-04-20T02:09:16.689Z,57.16
2019-04-20T02:11:43.095Z,57.35
2019-04-20T02:14:10.397Z,57.53
2019-04-20T02:16:42.691Z,57.58
2019-04-20T02:19:22.150Z,57.69
2019-04-20T02:21:51.452Z,57.79
2019-04-20T02:24:05.705Z,57.95
2019-04-20T02:26:30.670Z,58.13
2019-04-20T02:29:36.169Z,58.24
2019-04-20T02:32:13.165Z,58.31
2019-04-20T02:34:47.859Z,58.70
2019-04-20T02:37:45.113Z,58.37
2019-04-20T02:42:40.468Z,58.19
2019-04-20T02:45:01.345Z,58.23
2019-04-20T02:47:30.484Z,58.41
2019-04-20T02:49:51.437Z,58.52
2019-04-20T02:52:24.878Z,58.51
2019-04-20T02:54:46.727Z,58.74
2019-04-20T03:02:01.513Z,59.17
2019-04-20T03:04:20.533Z,59.13
2019-04-20T03:06:57.126Z,59.15
2019-04-20T03:09:33.020Z,59.30
2019-04-20T03:14:21.744Z,59.54
2019-04-20T03:16:50.385Z,59.98
2019-04-20T03:19:17.382Z,60.07
2019-04-20T03:21:54.834Z,60.04
2019-04-20T03:24:26.658Z,60.13
2019-04-20T03:26:54.673Z,60.58
2019-04-20T03:29:37.357Z,60.49
2019-04-20T03:34:55.589Z,60.40
2019-04-20T03:37:07.057Z,60.53
2019-04-20T03:39:28.904Z,60.54
2019-04-20T03:41:44.418Z,60.58
2019-04-20T03:44:12.578Z,60.61
2019-04-20T03:46:45.778Z,60.61
2019-04-20T03:49:28.079Z,60.65
2019-04-20T03:51:58.542Z,60.75
2019-04-20T03:54:19.933Z,60.84
2019-04-20T03:57:18.494Z,60.94
2019-04-20T03:59:48.440Z,61.02
2019-04-20T04:02:58.013Z,61.09
2019-04-20T04:05:20.003Z,61.00
2019-04-20T04:07:38.094Z,61.17
2019-04-20T04:10:14.371Z,61.22
2019-04-20T04:12:46.787Z,61.13
2019-04-20T04:15:13.032Z,61.53
2019-04-20T04:17:43.401Z,61.62
2019-04-20T04:20:13.090Z,61.54
2019-04-20T04:22:50.059Z,61.78
2019-04-20T04:25:18.433Z,61.67
2019-04-20T04:27:55.042Z,61.74
2019-04-20T04:30:18.309Z,66.82
2019-04-20T04:33:16.343Z,68.97
2019-04-20T04:35:14.137Z,68.17
2019-04-20T04:37:47.108Z,64.01
2019-04-20T04:40:27.305Z,65.78
2019-04-20T04:42:48.195Z,64.08
2019-04-20T04:45:00.594Z,62.61
2019-04-20T04:47:22.146Z,60.10
2019-04-20T04:49:58.159Z,56.17
2019-04-20T04:52:27.425Z,56.82
2019-04-20T04:54:53.752Z,56.19
2019-04-20T04:57:15.658Z,57.34
2019-04-20T04:59:42.586Z,56.87
2019-04-20T05:02:09.697Z,57.02
2019-04-20T05:05:18.003Z,57.08
2019-04-20T05:07:51.446Z,57.24
2019-04-20T05:10:37.067Z,57.28
2019-04-20T05:13:04.913Z,57.33
2019-04-20T05:15:55.545Z,57.10
2019-04-20T05:18:42.025Z,57.49
2019-04-20T05:21:04.400Z,57.60
2019-04-20T05:23:53.524Z,58.02
2019-04-20T05:26:55.615Z,59.52
2019-04-20T05:29:14.120Z,59.46
2019-04-20T05:31:49.342Z,59.71
2019-04-20T05:34:38.689Z,59.77
2019-04-20T05:37:20.900Z,59.60
2019-04-20T05:39:50.129Z,59.49
2019-04-20T05:42:32.778Z,59.40
2019-04-20T05:44:55.964Z,58.82
2019-04-20T05:47:36.115Z,60.87
2019-04-20T05:50:05.069Z,59.09
2019-04-20T05:52:58.309Z,59.80
2019-04-20T05:55:20.821Z,58.54
2019-04-20T05:58:03.528Z,58.48
2019-04-20T06:00:37.441Z,57.38
2019-04-20T06:03:09.507Z,56.73
2019-04-20T06:05:53.668Z,56.36
2019-04-20T06:08:32.059Z,55.76
2019-04-20T06:10:55.982Z,56.11
2019-04-20T06:13:43.111Z,56.16
2019-04-20T06:16:50.995Z,55.92
2019-04-20T06:19:26.345Z,55.74
2019-04-20T06:22:06.392Z,54.47
2019-04-20T06:25:17.071Z,53.80
2019-04-20T06:27:40.029Z,53.85
2019-04-20T06:30:11.074Z,53.47
2019-04-20T06:33:19.040Z,53.77
2019-04-20T06:36:07.517Z,54.01
2019-04-20T06:38:46.630Z,53.96
2019-04-20T06:41:06.334Z,53.60
2019-04-20T06:43:36.695Z,53.87
2019-04-20T06:46:12.958Z,53.77
2019-04-20T06:48:47.096Z,52.90
2019-04-20T06:51:23.641Z,52.26
2019-04-20T06:53:57.085Z,52.94
2019-04-20T06:56:35.810Z,52.44
2019-04-20T06:59:12.601Z,52.30
2019-04-20T07:01:44.494Z,52.08
2019-04-20T07:04:26.477Z,51.88
2019-04-20T07:06:54.149Z,51.41
2019-04-20T07:09:26.246Z,51.56
2019-04-20T07:11:50.530Z,51.58
2019-04-20T07:14:17.247Z,51.37
2019-04-20T07:17:36.067Z,51.41
2019-04-20T07:20:16.005Z,51.04
2019-04-20T07:25:47.833Z,51.18
2019-04-20T07:28:36.890Z,51.45
2019-04-20T07:31:03.069Z,50.72
2019-04-20T07:33:42.385Z,50.47
2019-04-20T07:36:22.141Z,50.39
2019-04-20T07:39:03.728Z,50.25
2019-04-20T07:41:33.151Z,50.04
2019-04-20T07:44:04.648Z,49.71
2019-04-20T07:46:47.169Z,49.49
2019-04-20T07:49:07.433Z,49.68
2019-04-20T07:51:32.100Z,49.45
2019-04-20T07:54:33.358Z,49.92
2019-04-20T07:56:53.794Z,48.80
2019-04-20T07:59:26.494Z,48.87
2019-04-20T08:05:15.412Z,47.81
2019-04-20T08:07:44.746Z,46.81
2019-04-20T08:13:19.378Z,44.44
2019-04-20T08:15:58.355Z,44.70
2019-04-20T08:18:16.821Z,43.92
2019-04-20T08:20:53.523Z,43.85
2019-04-20T08:23:23.633Z,42.62
2019-04-20T08:25:49.778Z,42.55
2019-04-20T08:28:29.396Z,42.27
2019-04-20T08:31:30.127Z,41.65
2019-04-20T08:34:20.240Z,41.88
2019-04-20T08:36:53.963Z,41.26
2019-04-20T08:39:38.134Z,41.20
2019-04-20T08:42:05.824Z,41.46
2019-04-20T08:47:37.797Z,40.81
2019-04-20T08:55:43.787Z,41.19
2019-04-20T08:58:02.171Z,39.48
2019-04-20T09:00:42.964Z,39.07
2019-04-20T09:03:19.361Z,38.75
2019-04-20T09:05:58.961Z,38.95
2019-04-20T09:08:31.796Z,38.64
2019-04-20T09:11:15.375Z,39.04
2019-04-20T09:13:43.239Z,38.71
2019-04-20T09:16:13.251Z,38.18
2019-04-20T09:18:49.381Z,37.56
2019-04-20T09:21:27.347Z,37.38
2019-04-20T09:29:35.843Z,36.90
2019-04-20T09:35:00.123Z,35.88
2019-04-20T09:37:54.415Z,35.92
2019-04-20T09:43:21.721Z,35.73
2019-04-20T09:46:03.624Z,35.51
2019-04-20T09:48:41.859Z,35.17
2019-04-20T09:51:25.796Z,34.87
2019-04-20T09:53:55.030Z,34.78
2019-04-20T09:56:34.536Z,35.10
2019-04-20T09:59:12.235Z,34.22
2019-04-20T10:01:38.102Z,32.84
2019-04-20T10:04:05.448Z,32.58
2019-04-20T10:06:43.575Z,32.36
2019-04-20T10:09:21.258Z,31.91
2019-04-20T10:11:53.270Z,31.69
2019-04-20T10:14:20.124Z,31.11
2019-04-20T10:16:47.415Z,30.13
2019-04-20T10:19:26.656Z,30.15
2019-04-20T10:21:56.971Z,29.87
2019-04-20T10:24:32.662Z,29.55
2019-04-20T10:27:06.414Z,28.69
2019-04-20T10:29:33.627Z,27.89
2019-04-20T10:32:05.712Z,27.04
2019-04-20T10:34:35.007Z,27.32
2019-04-20T10:37:15.623Z,26.69
2019-04-20T10:39:50.024Z,27.19
2019-04-20T10:42:16.656Z,26.37
2019-04-20T10:44:43.324Z,26.16
2019-04-20T10:47:11.206Z,26.53
2019-04-20T10:49:45.100Z,26.17
2019-04-20T10:52:11.762Z,25.67
2019-04-20T10:54:38.514Z,26.10
2019-04-20T10:57:05.735Z,25.17
2019-04-20T10:59:41.459Z,24.30
2019-04-20T11:02:16.045Z,24.40
2019-04-20T11:04:50.643Z,24.58
2019-04-20T11:07:26.367Z,23.58
2019-04-20T11:10:07.930Z,23.86
2019-04-20T11:12:28.667Z,23.60
2019-04-20T11:14:56.448Z,24.15
2019-04-20T11:17:24.343Z,23.65
2019-04-20T11:19:51.625Z,23.33
2019-04-20T11:22:18.426Z,23.35
2019-04-20T11:24:46.113Z,21.64
2019-04-20T11:27:14.018Z,22.39
2019-04-20T11:29:42.162Z,23.07
2019-04-20T11:32:09.661Z,21.83
2019-04-20T11:34:40.179Z,21.79
2019-04-20T11:37:06.910Z,21.94
2019-04-20T11:39:34.898Z,22.27
2019-04-20T11:42:09.982Z,21.74
2019-04-20T11:44:38.138Z,21.52
2019-04-20T11:47:08.506Z,21.85
2019-04-20T11:49:35.455Z,21.68
2019-04-20T11:52:03.506Z,21.70
2019-04-20T11:54:30.472Z,22.26
2019-04-20T11:56:57.446Z,21.34
2019-04-20T11:59:25.342Z,22.12
2019-04-20T12:02:27.919Z,21.01
2019-04-20T12:05:10.048Z,21.52
2019-04-20T12:07:24.918Z,21.33
2019-04-20T12:09:51.738Z,21.43
2019-04-20T12:12:32.187Z,20.65
2019-04-20T12:14:48.388Z,21.61
2019-04-20T12:17:15.603Z,20.93
2019-04-20T12:19:43.754Z,21.03
2019-04-20T12:22:11.788Z,23.47
2019-04-20T12:24:38.569Z,22.22
2019-04-20T12:27:05.269Z,22.98
2019-04-20T12:29:32.145Z,24.68
2019-04-20T12:32:02.232Z,22.47
2019-04-20T12:34:28.590Z,22.18
2019-04-20T12:36:55.438Z,21.87
2019-04-20T12:39:22.485Z,23.59
2019-04-20T12:41:53.711Z,21.36
2019-04-20T12:44:17.806Z,21.66
2019-04-20T12:46:45.766Z,20.88
2019-04-20T12:49:13.666Z,22.12
2019-04-20T12:51:49.928Z,21.52
2019-04-20T12:54:08.990Z,22.14
2019-04-20T12:56:35.635Z,20.81
2019-04-20T12:59:03.248Z,19.94
2019-04-20T13:01:30.242Z,20.11
2019-04-20T13:03:57.395Z,18.58
2019-04-20T13:06:24.111Z,19.63
2019-04-20T13:08:53.832Z,19.45
2019-04-20T13:11:23.039Z,18.21
2019-04-20T13:14:16.983Z,18.69
2019-04-20T13:16:44.093Z,18.78
2019-04-20T13:19:11.128Z,17.75
2019-04-20T13:21:39.063Z,17.47
2019-04-20T13:24:07.004Z,17.88
2019-04-20T13:26:35.107Z,18.21
2019-04-20T13:29:02.328Z,17.53
2019-04-20T13:31:29.707Z,17.87
2019-04-20T13:33:57.176Z,17.09
2019-04-20T13:36:24.289Z,16.75
2019-04-20T13:38:52.246Z,16.92
2019-04-20T13:41:19.870Z,16.34
2019-04-20T13:43:47.972Z,16.55
2019-04-20T13:46:15.125Z,16.70
2019-04-20T13:48:42.854Z,16.94
2019-04-20T13:51:09.941Z,16.69
2019-04-20T13:53:37.173Z,17.14
2019-04-20T13:56:04.119Z,17.26
2019-04-20T13:58:47.745Z,17.26
2019-04-20T14:01:34.763Z,16.46
2019-04-20T14:04:14.807Z,16.31
2019-04-20T14:06:41.838Z,16.18
2019-04-20T14:09:09.756Z,15.93
2019-04-20T14:11:36.549Z,15.92
2019-04-20T14:14:05.387Z,16.54
2019-04-20T14:16:31.771Z,16.36
2019-04-20T14:18:58.771Z,16.89
2019-04-20T14:21:26.060Z,16.19
2019-04-20T14:23:53.070Z,16.23
2019-04-20T14:26:20.985Z,16.10
2019-04-20T14:28:48.940Z,16.10
2019-04-20T14:31:16.135Z,15.69
2019-04-20T14:33:42.924Z,16.15
2019-04-20T14:36:10.728Z,15.97
2019-04-20T14:38:38.326Z,15.48
2019-04-20T14:41:06.418Z,15.59
2019-04-20T14:43:34.668Z,15.30
2019-04-20T14:46:03.034Z,15.63
2019-04-20T14:48:31.070Z,15.73
2019-04-20T14:50:59.277Z,15.14
2019-04-20T14:53:27.364Z,15.42
2019-04-20T14:55:55.455Z,16.17
2019-04-20T14:58:57.639Z,15.83
2019-04-20T15:01:30.319Z,15.72
2019-04-20T15:04:04.270Z,15.98
2019-04-20T15:06:25.765Z,16.08
2019-04-20T15:08:52.647Z,15.29
2019-04-20T15:11:19.340Z,15.24
2019-04-20T15:13:46.855Z,15.79
2019-04-20T15:16:14.902Z,15.92
2019-04-20T15:18:48.303Z,15.58
2019-04-20T15:21:15.472Z,15.91
2019-04-20T15:23:43.595Z,15.69
2019-04-20T15:26:10.717Z,15.71
2019-04-20T15:28:38.626Z,15.88
2019-04-20T15:31:06.004Z,16.67
2019-04-20T15:33:32.966Z,15.37
2019-04-20T15:36:00.046Z,15.75
2019-04-20T15:38:27.150Z,15.87
2019-04-20T15:40:55.224Z,16.28
2019-04-20T15:43:25.862Z,15.76
2019-04-20T15:45:51.594Z,15.12
2019-04-20T15:48:19.786Z,15.42
2019-04-20T15:50:47.782Z,15.33
2019-04-20T15:53:15.603Z,15.83
2019-04-20T15:55:43.909Z,15.70
2019-04-20T15:58:12.211Z,15.51
2019-04-20T16:00:40.411Z,16.00
2019-04-20T16:03:17.175Z,16.19
2019-04-20T16:05:47.323Z,15.66
2019-04-20T16:08:32.405Z,15.90
2019-04-20T16:10:59.594Z,15.92
2019-04-20T16:13:35.216Z,16.40
2019-04-20T16:15:56.026Z,16.34
2019-04-20T16:18:23.090Z,16.30
2019-04-20T16:20:59.404Z,16.74
2019-04-20T16:23:18.698Z,16.90
2019-04-20T16:25:49.944Z,16.13
2019-04-20T16:28:17.377Z,16.09
2019-04-20T16:30:45.397Z,16.15
2019-04-20T16:33:12.474Z,16.65
2019-04-20T16:35:40.461Z,16.40
2019-04-20T16:38:08.611Z,16.34
2019-04-20T16:40:35.687Z,16.16
2019-04-20T16:43:06.277Z,16.68
2019-04-20T16:45:31.118Z,16.20
2019-04-20T16:47:59.731Z,16.03
2019-04-20T16:50:26.867Z,15.96
2019-04-20T16:52:54.845Z,16.54
2019-04-20T16:55:22.876Z,16.67
2019-04-20T16:57:51.207Z,16.60
2019-04-20T17:00:18.232Z,16.64
2019-04-20T17:02:44.858Z,16.64
2019-04-20T17:05:11.538Z,17.15
2019-04-20T17:07:42.979Z,16.60
2019-04-20T17:10:11.734Z,16.78
2019-04-20T17:12:46.041Z,17.13
2019-04-20T17:15:21.503Z,17.14
2019-04-20T17:17:57.180Z,17.42
2019-04-20T17:20:30.773Z,17.78
2019-04-20T17:22:58.360Z,18.15
2019-04-20T17:25:32.636Z,18.28
2019-04-20T17:28:18.822Z,18.20
2019-04-20T17:30:59.260Z,19.33
2019-04-20T17:33:50.519Z,18.80
2019-04-20T17:36:18.797Z,18.94
2019-04-20T17:38:52.534Z,19.90
2019-04-20T17:41:43.201Z,20.09
2019-04-20T17:44:16.549Z,20.37
2019-04-20T17:46:43.935Z,20.08
2019-04-20T17:49:21.278Z,20.18
2019-04-20T17:52:05.101Z,20.96
2019-04-20T17:57:15.137Z,21.50
2019-04-20T18:03:02.056Z,22.56
2019-04-20T18:05:46.622Z,23.67
2019-04-20T18:08:20.529Z,23.45
2019-04-20T18:10:47.251Z,26.08
2019-04-20T18:13:16.579Z,24.87
2019-04-20T18:18:52.923Z,25.01
2019-04-20T18:21:21.512Z,25.87
2019-04-20T18:23:50.326Z,26.18
2019-04-20T18:26:45.562Z,26.76
2019-04-20T18:29:16.678Z,26.59
2019-04-20T18:31:53.364Z,27.10
2019-04-20T18:34:36.506Z,27.75
2019-04-20T18:37:08.256Z,28.13
2019-04-20T18:39:43.786Z,28.85
2019-04-20T18:42:21.878Z,29.53
2019-04-20T18:45:09.137Z,29.42
2019-04-20T18:47:39.122Z,29.83
2019-04-20T18:50:09.500Z,30.43
2019-04-20T18:52:33.747Z,30.52
2019-04-20T18:55:17.326Z,31.12
2019-04-20T18:57:44.561Z,31.71
2019-04-20T19:00:45.380Z,32.07
2019-04-20T19:03:20.236Z,32.40
2019-04-20T19:05:49.656Z,32.60
2019-04-20T19:08:17.544Z,33.04
2019-04-20T19:11:01.529Z,33.12
2019-04-20T19:13:49.838Z,33.05
2019-04-20T19:16:58.102Z,33.20
2019-04-20T19:19:30.208Z,33.07
2019-04-20T19:21:56.340Z,35.26
2019-04-20T19:24:27.445Z,35.63
2019-04-20T19:27:03.502Z,35.27
2019-04-20T19:29:40.427Z,33.32
2019-04-20T19:32:24.972Z,33.25
2019-04-20T19:34:54.934Z,33.48
2019-04-20T19:37:26.307Z,33.56
2019-04-20T19:40:06.724Z,33.93
2019-04-20T19:42:43.474Z,33.86
2019-04-20T19:45:31.749Z,34.61
2019-04-20T19:47:54.725Z,34.52
2019-04-20T19:53:16.532Z,36.08
2019-04-20T19:55:39.706Z,36.06
2019-04-20T19:58:11.136Z,36.17
2019-04-20T20:03:50.645Z,36.00
2019-04-20T20:06:30.542Z,36.72
2019-04-20T20:09:00.549Z,36.68
2019-04-20T20:11:34.038Z,36.96
2019-04-20T20:14:09.097Z,36.40
2019-04-20T20:17:01.491Z,36.32
2019-04-20T20:19:35.559Z,37.10
2019-04-20T20:22:04.504Z,37.09
2019-04-20T20:24:25.259Z,36.85
2019-04-20T20:26:58.457Z,37.42
2019-04-20T20:29:34.283Z,37.90
2019-04-20T20:32:15.615Z,38.04
2019-04-20T20:34:42.212Z,37.82
2019-04-20T20:37:27.220Z,38.06
2019-04-20T20:39:58.437Z,38.11
2019-04-20T20:42:32.976Z,37.95
2019-04-20T20:48:15.465Z,38.27
2019-04-20T20:50:48.875Z,38.38
2019-04-20T20:53:18.528Z,39.00
2019-04-20T20:55:53.418Z,39.65
2019-04-20T20:58:36.116Z,39.43
2019-04-20T21:01:09.461Z,39.03
2019-04-20T21:03:38.529Z,39.86
2019-04-20T21:06:11.672Z,39.61
2019-04-20T21:08:51.691Z,39.52
2019-04-20T21:11:26.221Z,39.74
2019-04-20T21:13:56.232Z,39.82
2019-04-20T21:16:33.581Z,40.49
2019-04-20T21:19:21.165Z,40.51
2019-04-20T21:21:49.948Z,41.45
2019-04-20T21:24:21.583Z,40.98
2019-04-20T21:26:55.748Z,40.66
2019-04-20T21:29:35.590Z,40.88
2019-04-20T21:32:10.426Z,42.05
2019-04-20T21:34:44.507Z,41.81
2019-04-20T21:37:18.935Z,41.56
2019-04-20T21:39:55.330Z,41.34
2019-04-20T21:42:28.200Z,41.34
2019-04-20T21:45:07.028Z,42.13
2019-04-20T21:47:39.281Z,41.69
2019-04-20T21:50:28.305Z,41.78
2019-04-20T21:52:50.596Z,42.20
2019-04-20T21:55:21.673Z,42.05
2019-04-20T21:57:59.045Z,42.33
2019-04-20T22:01:03.846Z,42.30
2019-04-20T22:03:25.003Z,42.40
2019-04-20T22:06:04.738Z,42.41
2019-04-20T22:08:32.710Z,42.74
2019-04-20T22:11:06.529Z,42.57
2019-04-20T22:13:38.037Z,43.07
2019-04-20T22:16:11.014Z,43.43
2019-04-20T22:18:53.024Z,43.54
2019-04-20T22:21:53.421Z,43.35
2019-04-20T22:24:32.885Z,43.77
2019-04-20T22:27:05.110Z,43.81
2019-04-20T22:29:28.126Z,44.03
2019-04-20T22:32:00.475Z,44.52
2019-04-20T22:34:34.969Z,44.56
2019-04-20T22:37:14.054Z,44.70
2019-04-20T22:39:50.808Z,45.64
2019-04-20T22:42:22.216Z,47.05
2019-04-20T22:45:01.950Z,49.24
2019-04-20T22:47:32.683Z,49.77
2019-04-20T22:50:18.781Z,49.39
2019-04-20T22:52:55.974Z,48.67
2019-04-20T22:56:01.255Z,48.66
2019-04-20T22:58:28.855Z,48.53
2019-04-20T23:00:56.137Z,48.43
2019-04-20T23:03:25.023Z,48.51
2019-04-20T23:06:00.658Z,48.42
2019-04-20T23:08:35.025Z,48.45
2019-04-20T23:11:04.667Z,49.03
2019-04-20T23:13:36.907Z,49.04
2019-04-20T23:16:01.960Z,49.66
2019-04-20T23:18:28.490Z,49.66
2019-04-20T23:21:01.342Z,50.04
2019-04-20T23:23:28.850Z,49.99
2019-04-20T23:25:53.747Z,50.64
2019-04-20T23:28:22.440Z,50.17
2019-04-20T23:30:51.918Z,50.60
2019-04-20T23:33:18.033Z,50.46
2019-04-20T23:35:51.939Z,50.62
2019-04-20T23:38:18.002Z,50.85
2019-04-20T23:40:41.836Z,51.31
2019-04-20T23:43:23.356Z,51.55
2019-04-20T23:46:17.020Z,51.47
2019-04-20T23:48:46.496Z,52.06
2019-04-20T23:51:36.984Z,52.13
2019-04-20T23:53:54.374Z,52.13
2019-04-20T23:56:14.975Z,51.97
2019-04-20T23:58:44.332Z,51.98
